createdAt,value
2018-11-22T00:04:02.303Z,18.60
2018-11-22T00:09:08.216Z,18.50
2018-11-22T00:14:11.398Z,18.50
2018-11-22T00:19:14.590Z,18.40
2018-11-22T00:24:17.771Z,18.40
2018-11-22T00:29:20.988Z,18.50
2018-11-22T00:34:24.206Z,18.70
2018-11-22T00:39:27.389Z,18.70
2018-11-22T00:44:30.563Z,18.80
2018-11-22T00:49:33.834Z,18.80
2018-11-22T00:54:37.094Z,18.70
2018-11-22T00:59:40.416Z,18.80
2018-11-22T01:04:43.634Z,19.00
2018-11-22T01:09:46.837Z,18.90
2018-11-22T01:14:50.039Z,19.10
2018-11-22T01:19:53.280Z,19.10
2018-11-22T01:24:56.599Z,19.10
2018-11-22T01:29:59.989Z,19.10
2018-11-22T01:35:03.198Z,19.10
2018-11-22T01:40:08.086Z,19.10
2018-11-22T01:45:12.496Z,19.00
2018-11-22T01:50:16.704Z,18.90
2018-11-22T01:55:24.153Z,18.80
2018-11-22T02:00:27.352Z,18.70
2018-11-22T02:05:30.572Z,18.60
2018-11-22T02:10:33.781Z,18.60
2018-11-22T02:15:36.957Z,18.40
2018-11-22T02:20:40.250Z,18.30
2018-11-22T02:25:43.455Z,18.20
2018-11-22T02:30:46.658Z,18.20
2018-11-22T02:35:49.931Z,18.10
2018-11-22T02:40:53.100Z,18.00
2018-11-22T02:45:56.336Z,18.00
2018-11-22T02:50:59.549Z,17.90
2018-11-22T02:56:02.787Z,17.80
2018-11-22T03:01:06.381Z,17.70
2018-11-22T03:06:09.559Z,17.60
2018-11-22T03:11:12.838Z,17.50
2018-11-22T03:16:16.026Z,17.40
2018-11-22T03:21:19.490Z,17.30
2018-11-22T03:26:22.684Z,17.30
2018-11-22T03:31:25.909Z,17.30
2018-11-22T03:36:29.104Z,17.20
2018-11-22T03:41:32.322Z,17.10
2018-11-22T03:46:35.543Z,17.00
2018-11-22T03:51:38.766Z,17.00
2018-11-22T03:56:42.009Z,16.90
2018-11-22T04:01:45.213Z,16.70
2018-11-22T04:06:48.445Z,16.80
2018-11-22T04:11:51.626Z,16.70
2018-11-22T04:16:54.769Z,16.80
2018-11-22T04:21:58.320Z,16.60
2018-11-22T04:27:01.496Z,16.70
2018-11-22T04:32:04.789Z,16.60
2018-11-22T04:37:07.985Z,16.50
2018-11-22T04:42:11.200Z,16.50
2018-11-22T04:47:14.620Z,16.40
2018-11-22T04:52:17.805Z,16.40
2018-11-22T04:57:20.945Z,16.40
2018-11-22T05:02:24.118Z,16.40
2018-11-22T05:07:27.309Z,16.30
2018-11-22T05:12:30.565Z,16.20
2018-11-22T05:17:33.871Z,16.20
2018-11-22T05:22:37.595Z,16.10
2018-11-22T05:27:41.500Z,16.10
2018-11-22T05:32:44.732Z,16.20
2018-11-22T05:37:48.000Z,16.40
2018-11-22T05:42:51.161Z,16.60
2018-11-22T05:47:54.379Z,16.90
2018-11-22T05:52:59.093Z,17.00
2018-11-22T05:58:02.310Z,17.10
2018-11-22T06:03:05.690Z,17.10
2018-11-22T06:08:08.851Z,17.30
2018-11-22T06:13:12.108Z,17.40
2018-11-22T06:18:15.371Z,17.50
2018-11-22T06:23:18.627Z,17.60
2018-11-22T06:28:21.821Z,17.70
2018-11-22T06:33:25.021Z,17.80
2018-11-22T06:38:28.234Z,18.00
2018-11-22T06:43:31.447Z,18.00
2018-11-22T06:48:35.005Z,18.10
2018-11-22T06:53:38.228Z,18.20
2018-11-22T06:58:41.436Z,18.20
2018-11-22T07:03:44.680Z,18.10
2018-11-22T07:08:47.940Z,18.10
2018-11-22T07:13:51.168Z,18.10
2018-11-22T07:18:54.438Z,18.00
2018-11-22T07:23:57.838Z,18.00
2018-11-22T07:29:01.159Z,18.10
2018-11-22T07:34:04.571Z,18.20
2018-11-22T12:17:17.943Z,16.70
2018-11-22T12:22:21.448Z,16.70
2018-11-22T12:27:24.691Z,16.60
2018-11-22T12:32:34.171Z,16.40
2018-11-22T12:37:43.162Z,16.40
2018-11-22T12:42:42.377Z,16.40
2018-11-22T12:47:45.623Z,16.40
2018-11-22T12:52:49.200Z,16.30
2018-11-22T12:57:52.558Z,16.40
2018-11-22T13:02:55.831Z,16.30
2018-11-22T13:07:59.102Z,16.20
2018-11-22T13:13:02.676Z,16.20
2018-11-22T13:18:06.076Z,16.20
2018-11-22T13:23:09.326Z,16.10
2018-11-22T13:28:12.506Z,16.10
2018-11-22T13:33:15.707Z,16.10
2018-11-22T13:38:18.870Z,16.00
2018-11-22T13:43:22.114Z,15.90
2018-11-22T13:48:25.371Z,15.70
2018-11-22T13:53:28.571Z,15.70
2018-11-22T13:58:31.805Z,15.70
2018-11-22T14:03:35.056Z,15.70
2018-11-22T14:08:38.424Z,15.60
2018-11-22T14:13:41.738Z,15.50
2018-11-22T14:18:44.952Z,15.40
2018-11-22T14:23:48.309Z,15.40
2018-11-22T14:28:51.712Z,15.40
2018-11-22T14:33:54.993Z,15.40
2018-11-22T14:38:58.649Z,15.40
2018-11-22T14:44:01.989Z,15.30
2018-11-22T14:49:05.897Z,15.40
2018-11-22T14:54:09.245Z,15.30
2018-11-22T14:59:12.553Z,15.30
2018-11-22T15:04:15.831Z,15.30
2018-11-22T15:09:19.349Z,15.30
2018-11-22T15:14:22.820Z,15.20
2018-11-22T15:19:26.073Z,15.20
2018-11-22T15:24:29.318Z,15.10
2018-11-22T15:29:32.617Z,15.00
2018-11-22T15:34:36.098Z,15.00
2018-11-22T15:39:39.366Z,14.90
2018-11-22T15:44:42.668Z,14.90
2018-11-22T15:49:46.051Z,14.80
2018-11-22T15:54:49.280Z,14.80
2018-11-22T15:59:52.615Z,14.70
2018-11-22T16:04:55.899Z,14.80
2018-11-22T16:09:59.098Z,14.80
2018-11-22T16:15:02.358Z,14.60
2018-11-22T16:20:06.720Z,14.60
2018-11-22T16:25:11.379Z,14.60
2018-11-22T16:30:17.049Z,14.70
2018-11-22T16:35:21.295Z,14.70
2018-11-22T16:40:26.015Z,14.60
2018-11-22T16:45:30.489Z,14.60
2018-11-22T16:50:34.945Z,14.60
2018-11-22T16:55:38.211Z,14.50
2018-11-22T17:00:41.955Z,14.40
2018-11-22T17:05:45.693Z,14.40
2018-11-22T17:10:49.086Z,14.30
2018-11-22T17:15:52.230Z,14.30
2018-11-22T17:20:55.495Z,14.30
2018-11-22T17:25:58.964Z,14.20
2018-11-22T17:31:02.420Z,14.30
2018-11-22T17:36:06.159Z,14.10
2018-11-22T17:41:09.468Z,14.20
2018-11-22T17:46:12.868Z,14.10
2018-11-22T17:51:16.057Z,14.10
2018-11-22T17:56:19.281Z,14.10
2018-11-22T18:01:22.603Z,14.10
2018-11-22T18:06:25.862Z,14.10
2018-11-22T18:11:29.154Z,14.20
2018-11-22T18:16:32.420Z,14.30
2018-11-22T18:21:35.746Z,14.30
2018-11-22T18:26:39.181Z,14.20
2018-11-22T18:31:42.399Z,14.10
2018-11-22T18:36:45.661Z,14.00
2018-11-22T18:41:48.915Z,14.10
2018-11-22T18:46:52.252Z,14.10
2018-11-22T18:51:55.611Z,14.00
2018-11-22T18:56:58.866Z,13.90
2018-11-22T19:02:02.068Z,14.00
2018-11-22T19:07:06.107Z,14.00
2018-11-22T19:12:09.407Z,13.90
2018-11-22T19:17:12.601Z,14.00
2018-11-22T19:22:15.865Z,14.00
2018-11-22T19:27:19.196Z,14.10
2018-11-22T19:32:22.451Z,14.20
2018-11-22T19:37:25.660Z,14.40
2018-11-22T19:42:28.851Z,14.60
2018-11-22T19:47:32.831Z,14.80
2018-11-22T19:52:36.091Z,15.10
2018-11-22T19:57:39.479Z,15.30
2018-11-22T20:02:43.415Z,15.50
2018-11-22T20:07:48.202Z,15.60
2018-11-22T20:12:51.432Z,15.80
2018-11-22T20:17:55.397Z,15.90
2018-11-22T20:22:58.994Z,16.10
2018-11-22T20:28:02.225Z,16.20
2018-11-22T20:33:05.658Z,16.30
2018-11-22T20:38:09.253Z,16.30
2018-11-22T20:43:12.487Z,16.50
2018-11-22T20:48:16.339Z,16.50
2018-11-22T20:53:19.643Z,16.70
2018-11-22T20:58:23.694Z,16.70
2018-11-22T21:03:27.005Z,16.70
2018-11-22T21:08:30.366Z,16.80
2018-11-22T21:13:33.622Z,16.70
2018-11-22T21:18:37.514Z,16.70
2018-11-22T21:23:40.728Z,16.70
2018-11-22T21:28:43.965Z,16.90
2018-11-22T21:33:47.169Z,16.90
2018-11-22T21:38:50.480Z,16.90
2018-11-22T21:43:53.769Z,17.10
2018-11-22T21:48:57.084Z,17.10
2018-11-22T21:54:00.593Z,17.10
2018-11-22T21:59:03.856Z,17.10
2018-11-22T22:04:07.305Z,17.00
2018-11-22T22:09:10.533Z,17.00
2018-11-22T22:14:13.736Z,17.00
2018-11-22T22:19:17.116Z,17.10
2018-11-22T22:24:20.575Z,17.30
2018-11-22T22:29:24.005Z,17.30
2018-11-22T22:34:27.214Z,17.40
2018-11-22T22:39:31.409Z,17.30
2018-11-22T22:44:34.728Z,17.30
2018-11-22T22:49:38.032Z,17.30
2018-11-22T22:54:42.631Z,17.40
2018-11-22T22:59:45.972Z,17.50
2018-11-22T23:04:49.190Z,17.60
2018-11-22T23:09:52.421Z,17.60
2018-11-22T23:14:55.663Z,17.60
2018-11-22T23:19:59.067Z,17.60
2018-11-22T23:25:02.292Z,17.60
2018-11-22T23:30:14.528Z,17.60
2018-11-22T23:35:18.015Z,17.50
2018-11-22T23:40:22.655Z,17.50
2018-11-22T23:45:27.204Z,17.40
2018-11-22T23:50:31.738Z,17.40
2018-11-22T23:55:34.962Z,17.30
